Time;durP1;ratioP1;P1;durP2;ratioP2;P2;SDS_P1;SDS_P2;PMS_P1;PMS_P2;Temp;Humidity;BMP_temperature;BMP_pressure;BME280_temperature;BME280_humidity;BME280_pressure;Samples;Min_cycle;Max_cycle;Signal;HPM_P1;HPM_P2
2021/03/21 00:00:04;;;;;;;4.75;2.70;;;5.10;78.70;;;;;;5044913;28;20071;-53
2021/03/21 00:02:29;;;;;;;4.88;2.50;;;4.80;79.00;;;;;;5044418;28;20029;-53
2021/03/21 00:04:55;;;;;;;4.13;2.60;;;4.70;79.80;;;;;;5044371;28;20495;-53
2021/03/21 00:07:21;;;;;;;3.55;2.63;;;5.00;79.70;;;;;;5043722;28;20131;-53
2021/03/21 00:09:47;;;;;;;6.25;3.40;;;5.10;79.40;;;;;;5041862;28;20064;-53
2021/03/21 00:12:14;;;;;;;6.72;4.15;;;5.20;79.10;;;;;;5044153;28;20047;-52
2021/03/21 00:14:39;;;;;;;8.32;4.85;;;5.20;78.60;;;;;;5043447;28;20021;-53
2021/03/21 00:17:05;;;;;;;7.10;3.88;;;5.20;79.80;;;;;;5044131;28;20044;-54
2021/03/21 00:19:32;;;;;;;6.03;3.45;;;5.00;79.20;;;;;;5044744;28;20053;-53
2021/03/21 00:21:57;;;;;;;4.68;2.83;;;5.10;79.50;;;;;;5044008;28;20110;-53
2021/03/21 00:24:23;;;;;;;2.78;2.20;;;5.00;79.60;;;;;;5044251;28;20491;-52
2021/03/21 00:26:49;;;;;;;3.53;2.40;;;4.80;80.10;;;;;;5042666;28;20025;-52
2021/03/21 00:29:14;;;;;;;3.10;2.00;;;4.80;80.30;;;;;;5043845;28;20025;-50
2021/03/21 00:31:40;;;;;;;3.05;1.90;;;4.70;80.60;;;;;;5043794;28;20029;-50
2021/03/21 00:34:06;;;;;;;3.75;2.38;;;4.60;80.80;;;;;;5044150;28;20060;-52
2021/03/21 00:36:32;;;;;;;3.25;2.25;;;4.50;81.70;;;;;;5043683;28;20029;-52
2021/03/21 00:38:58;;;;;;;2.63;1.88;;;4.60;81.50;;;;;;5043896;28;20021;-53
2021/03/21 00:41:27;;;;;;;2.38;1.98;;;4.50;81.80;;;;;;5043419;28;20017;-52
2021/03/21 00:43:55;;;;;;;3.17;2.22;;;4.50;82.20;;;;;;5043901;28;20035;-50
2021/03/21 00:46:22;;;;;;;3.28;2.15;;;4.40;82.90;;;;;;5043323;28;20434;-50
2021/03/21 00:48:49;;;;;;;3.05;2.00;;;4.30;83.30;;;;;;5044047;28;20052;-52
2021/03/21 00:51:15;;;;;;;2.97;1.80;;;4.50;83.30;;;;;;5043210;28;20024;-50
2021/03/21 00:53:42;;;;;;;2.97;2.08;;;4.30;83.60;;;;;;5043948;28;20214;-53
2021/03/21 00:56:09;;;;;;;2.95;2.00;;;4.20;84.40;;;;;;5043103;28;20498;-51
2021/03/21 00:58:37;;;;;;;2.20;1.60;;;4.10;84.40;;;;;;5043692;28;20087;-52
2021/03/21 01:01:04;;;;;;;2.88;1.98;;;4.30;84.50;;;;;;5043960;28;20029;-53
2021/03/21 01:03:31;;;;;;;2.33;1.77;;;4.30;84.40;;;;;;5044473;28;20056;-52
2021/03/21 01:06:05;;;;;;;3.00;2.10;;;4.10;85.20;;;;;;5046896;28;20095;-53
2021/03/21 01:08:37;;;;;;;4.63;2.10;;;4.00;85.50;;;;;;5046949;28;20043;-54
2021/03/21 01:11:06;;;;;;;2.00;1.70;;;4.20;85.30;;;;;;5048036;28;20044;-53
2021/03/21 01:13:33;;;;;;;3.10;2.20;;;4.20;85.20;;;;;;5048167;28;20021;-53
2021/03/21 01:16:00;;;;;;;4.30;2.72;;;4.10;85.70;;;;;;5046939;28;20104;-52
2021/03/21 01:18:28;;;;;;;5.03;2.80;;;3.80;86.30;;;;;;5055033;28;20025;-56
2021/03/21 01:20:54;;;;;;;3.25;2.53;;;3.70;87.40;;;;;;5067913;28;20028;-55
2021/03/21 01:23:20;;;;;;;3.38;2.47;;;3.60;87.80;;;;;;5067700;28;20090;-55
2021/03/21 01:25:47;;;;;;;4.45;2.92;;;3.60;88.10;;;;;;5067941;28;20024;-55
2021/03/21 01:28:31;;;;;;;3.85;2.55;;;3.50;88.10;;;;;;5067694;28;20073;-55
2021/03/21 01:30:59;;;;;;;4.28;3.03;;;3.60;88.30;;;;;;5067429;28;20113;-55
2021/03/21 01:33:29;;;;;;;4.43;2.88;;;3.60;88.20;;;;;;5067145;28;20447;-56
2021/03/21 01:35:55;;;;;;;3.38;2.40;;;3.60;88.30;;;;;;5067736;28;20032;-55
2021/03/21 01:38:21;;;;;;;2.92;2.13;;;3.60;88.50;;;;;;5067395;28;20029;-56
2021/03/21 01:40:49;;;;;;;2.13;1.92;;;3.50;88.90;;;;;;5067476;28;20608;-55
2021/03/21 01:43:21;;;;;;;3.47;2.38;;;3.80;88.70;;;;;;5067325;28;20099;-55
2021/03/21 01:45:51;;;;;;;2.97;2.03;;;3.80;88.30;;;;;;5067352;28;20107;-56
2021/03/21 01:48:35;;;;;;;4.15;2.28;;;3.80;88.50;;;;;;5067198;28;20053;-55
2021/03/21 01:51:07;;;;;;;3.97;2.60;;;3.80;88.50;;;;;;5067768;28;20036;-56
2021/03/21 01:53:36;;;;;;;3.78;2.40;;;3.80;88.50;;;;;;5067954;28;20043;-55
2021/03/21 01:56:03;;;;;;;4.00;2.22;;;3.80;89.10;;;;;;5067707;28;20051;-56
2021/03/21 01:58:32;;;;;;;3.95;2.20;;;3.80;89.10;;;;;;5067246;28;20035;-56
2021/03/21 02:01:01;;;;;;;3.72;2.20;;;3.80;88.90;;;;;;5067005;28;20029;-54
2021/03/21 02:03:27;;;;;;;3.85;2.22;;;3.80;89.40;;;;;;5067300;28;20025;-56
2021/03/21 02:06:24;;;;;;;3.28;2.33;;;3.80;89.80;;;;;;5067152;28;20025;-56
2021/03/21 02:09:04;;;;;;;3.95;2.40;;;3.60;90.00;;;;;;5066395;28;20062;-56
2021/03/21 02:11:45;;;;;;;3.65;2.60;;;3.40;90.70;;;;;;5066503;28;20028;-56
2021/03/21 02:14:46;;;;;;;3.85;2.30;;;3.60;90.70;;;;;;5066529;28;20032;-56
2021/03/21 02:17:38;;;;;;;2.72;2.28;;;3.60;90.70;;;;;;5066787;28;20039;-55
2021/03/21 02:20:19;;;;;;;3.55;2.53;;;3.40;91.10;;;;;;5065914;28;20043;-56
2021/03/21 02:22:59;;;;;;;3.30;2.38;;;3.50;91.00;;;;;;5066683;28;20032;-55
2021/03/21 02:25:46;;;;;;;4.80;2.60;;;3.40;91.20;;;;;;5066810;28;20028;-56
2021/03/21 02:28:31;;;;;;;5.72;2.72;;;3.40;91.50;;;;;;5066603;28;20028;-55
2021/03/21 02:31:06;;;;;;;4.53;2.95;;;3.60;91.20;;;;;;5066355;28;20103;-55
2021/03/21 02:34:07;;;;;;;3.05;2.25;;;3.30;91.50;;;;;;5067007;28;20020;-55
2021/03/21 02:37:17;;;;;;;4.10;2.42;;;3.30;91.80;;;;;;5065310;28;20079;-55
2021/03/21 02:40:07;;;;;;;6.63;3.03;;;3.60;91.50;;;;;;5063909;28;20052;-56
2021/03/21 02:42:40;;;;;;;7.85;4.03;;;3.70;91.40;;;;;;5066653;28;20024;-55
2021/03/21 02:45:13;;;;;;;7.00;4.00;;;3.50;91.60;;;;;;5066128;28;20016;-57
2021/03/21 02:47:41;;;;;;;5.95;3.55;;;3.60;91.70;;;;;;5065760;28;20028;-56
2021/03/21 02:50:48;;;;;;;5.35;3.30;;;3.50;91.70;;;;;;5065659;28;20036;-56
2021/03/21 02:53:23;;;;;;;5.60;3.97;;;3.50;91.90;;;;;;5063146;28;20131;-56
2021/03/21 02:55:51;;;;;;;8.18;4.57;;;3.50;91.90;;;;;;5065566;28;20036;-55
2021/03/21 02:58:24;;;;;;;6.47;3.72;;;3.30;92.30;;;;;;5065665;28;20043;-56
2021/03/21 03:01:03;;;;;;;5.95;3.55;;;3.20;92.60;;;;;;5065459;28;20024;-56
2021/03/21 03:03:32;;;;;;;3.88;2.70;;;3.30;92.50;;;;;;5065657;28;20044;-56
2021/03/21 03:06:03;;;;;;;4.70;2.92;;;3.30;92.50;;;;;;5065978;28;20343;-56
2021/03/21 03:08:35;;;;;;;4.00;3.00;;;3.10;93.00;;;;;;5064756;28;20052;-56
2021/03/21 03:11:08;;;;;;;4.00;2.80;;;3.10;93.20;;;;;;5066047;28;20081;-56
2021/03/21 03:13:40;;;;;;;4.72;3.20;;;3.10;93.30;;;;;;5065856;28;20039;-56
2021/03/21 03:16:13;;;;;;;4.07;2.80;;;3.10;93.30;;;;;;5065462;28;20028;-57
2021/03/21 03:18:47;;;;;;;3.17;2.63;;;3.10;93.30;;;;;;5065350;28;20024;-56
2021/03/21 03:21:22;;;;;;;4.57;2.85;;;3.20;93.50;;;;;;5065203;28;20099;-55
2021/03/21 03:23:57;;;;;;;3.28;2.60;;;3.20;93.40;;;;;;5065532;28;20059;-55
2021/03/21 03:26:40;;;;;;;5.32;2.95;;;3.30;93.20;;;;;;5064479;28;20414;-55
2021/03/21 03:29:13;;;;;;;4.68;2.50;;;3.40;93.40;;;;;;5065455;28;20028;-55
2021/03/21 03:31:42;;;;;;;4.68;3.08;;;3.20;93.40;;;;;;5064870;28;20060;-54
2021/03/21 03:34:09;;;;;;;4.45;2.75;;;3.30;93.50;;;;;;5065411;28;20064;-56
2021/03/21 03:36:35;;;;;;;4.35;2.85;;;3.10;93.60;;;;;;5065126;28;20039;-54
2021/03/21 03:39:02;;;;;;;5.10;2.63;;;3.00;93.90;;;;;;5065874;28;20025;-55
2021/03/21 03:41:39;;;;;;;4.13;2.40;;;3.10;93.90;;;;;;5064723;28;20396;-55
2021/03/21 03:44:18;;;;;;;4.03;2.95;;;3.10;93.90;;;;;;5064855;28;20521;-56
2021/03/21 03:47:03;;;;;;;5.93;2.97;;;3.00;94.10;;;;;;5065192;28;20028;-56
2021/03/21 03:50:02;;;;;;;5.07;3.20;;;2.90;94.60;;;;;;5064900;28;20028;-56
2021/03/21 03:52:34;;;;;;;4.95;3.15;;;2.80;94.70;;;;;;5065081;28;20027;-56
2021/03/21 03:55:06;;;;;;;5.90;3.40;;;2.80;94.60;;;;;;5065526;28;20037;-55
2021/03/21 03:57:35;;;;;;;4.68;3.50;;;2.70;95.00;;;;;;5065710;28;20028;-56
2021/03/21 04:00:14;;;;;;;6.32;3.25;;;2.70;95.00;;;;;;5065147;28;20047;-56
2021/03/21 04:03:00;;;;;;;3.70;2.90;;;2.80;95.00;;;;;;5064612;28;20096;-56
2021/03/21 04:05:46;;;;;;;5.85;3.13;;;2.80;95.00;;;;;;5064353;28;20035;-56
2021/03/21 04:08:26;;;;;;;5.13;2.80;;;3.10;94.80;;;;;;5064059;28;20051;-56
2021/03/21 04:11:05;;;;;;;3.90;2.90;;;3.10;94.80;;;;;;5064457;28;20036;-55
2021/03/21 04:13:42;;;;;;;4.28;3.17;;;3.20;94.60;;;;;;5064696;28;20025;-55
2021/03/21 04:16:13;;;;;;;4.25;2.47;;;3.20;94.60;;;;;;5064784;28;20032;-57
2021/03/21 04:19:05;;;;;;;3.70;2.50;;;3.20;94.40;;;;;;5064763;28;20220;-55
2021/03/21 04:21:51;;;;;;;6.00;3.33;;;3.30;94.40;;;;;;5064914;28;20108;-56
2021/03/21 04:24:40;;;;;;;5.68;3.10;;;3.50;94.20;;;;;;5064346;28;20406;-56
2021/03/21 04:27:17;;;;;;;4.75;3.15;;;3.40;94.30;;;;;;5064452;28;20462;-56
2021/03/21 04:29:48;;;;;;;5.43;3.45;;;3.40;94.30;;;;;;5063594;28;20100;-55
2021/03/21 04:32:21;;;;;;;6.32;3.63;;;3.40;94.30;;;;;;5064303;28;20104;-55
2021/03/21 04:34:50;;;;;;;5.03;3.63;;;3.50;94.20;;;;;;5064365;28;20032;-55
2021/03/21 04:37:20;;;;;;;5.03;3.42;;;3.40;94.50;;;;;;5064154;28;20037;-56
2021/03/21 04:39:48;;;;;;;6.25;3.15;;;3.30;94.30;;;;;;5068422;28;20017;-55
2021/03/21 04:42:35;;;;;;;4.10;2.78;;;3.20;94.40;;;;;;5068561;28;20044;-56
2021/03/21 04:45:13;;;;;;;3.60;2.70;;;3.20;94.50;;;;;;5069385;28;20016;-55
2021/03/21 04:47:49;;;;;;;5.35;3.25;;;3.10;94.60;;;;;;5067761;28;20023;-56
2021/03/21 04:50:17;;;;;;;4.40;2.80;;;2.90;95.10;;;;;;5068203;28;20033;-55
2021/03/21 04:53:13;;;;;;;5.07;2.95;;;2.90;95.30;;;;;;5068803;28;20021;-56
2021/03/21 04:55:41;;;;;;;4.68;2.80;;;2.90;95.20;;;;;;5068276;28;20021;-55
2021/03/21 04:58:30;;;;;;;5.13;3.20;;;2.90;95.20;;;;;;5067969;28;20583;-56
2021/03/21 05:01:05;;;;;;;7.78;3.85;;;2.90;95.30;;;;;;5066955;28;20028;-55
2021/03/21 05:03:42;;;;;;;4.38;2.80;;;2.60;95.60;;;;;;5068618;28;20123;-55
2021/03/21 05:06:18;;;;;;;4.90;3.00;;;2.60;95.80;;;;;;5068066;28;20074;-56
2021/03/21 05:08:55;;;;;;;3.83;2.75;;;2.60;95.70;;;;;;5067693;28;20059;-56
2021/03/21 05:11:36;;;;;;;5.75;3.40;;;2.60;95.80;;;;;;5067441;28;20086;-55
2021/03/21 05:14:06;;;;;;;3.67;2.40;;;2.70;95.90;;;;;;5068436;28;20024;-56
2021/03/21 05:16:37;;;;;;;4.85;3.05;;;2.60;95.90;;;;;;5068467;28;20123;-56
2021/03/21 05:19:04;;;;;;;5.80;3.20;;;2.60;95.90;;;;;;5067229;28;20384;-56
2021/03/21 05:21:51;;;;;;;4.82;2.75;;;2.70;95.90;;;;;;5067668;28;20494;-56
2021/03/21 05:24:30;;;;;;;6.10;2.95;;;2.60;95.90;;;;;;5067597;28;20071;-56
2021/03/21 05:27:02;;;;;;;3.65;2.47;;;2.80;95.70;;;;;;5067974;28;20021;-56
2021/03/21 05:29:47;;;;;;;4.38;3.03;;;2.90;95.60;;;;;;5067444;28;20501;-55
2021/03/21 05:32:16;;;;;;;4.97;3.28;;;2.80;95.50;;;;;;5067563;28;20043;-56
2021/03/21 05:34:43;;;;;;;5.97;3.65;;;2.80;95.50;;;;;;5067702;28;20029;-55
2021/03/21 05:37:21;;;;;;;6.82;3.72;;;2.60;95.60;;;;;;5067418;28;20040;-55
2021/03/21 05:39:52;;;;;;;3.92;3.00;;;2.70;95.60;;;;;;5067507;28;20035;-55
2021/03/21 05:43:03;;;;;;;4.53;2.92;;;2.60;95.70;;;;;;5066948;28;20033;-55
2021/03/21 05:46:01;;;;;;;4.53;2.60;;;2.80;95.70;;;;;;5067656;28;20094;-55
2021/03/21 05:48:46;;;;;;;6.85;3.35;;;2.90;95.40;;;;;;5066653;28;20550;-56
2021/03/21 05:52:03;;;;;;;4.70;2.88;;;2.80;95.40;;;;;;5066275;28;20111;-56
2021/03/21 05:54:43;;;;;;;4.97;3.20;;;2.90;95.40;;;;;;5065393;28;20036;-56
2021/03/21 05:57:53;;;;;;;5.07;3.22;;;3.00;95.20;;;;;;5067043;28;20075;-55
2021/03/21 06:00:56;;;;;;;4.78;2.85;;;3.00;95.00;;;;;;5065494;28;20051;-55
2021/03/21 06:04:10;;;;;;;6.45;3.00;;;3.00;95.10;;;;;;5066842;28;20059;-56
2021/03/21 06:07:00;;;;;;;4.38;2.83;;;2.80;95.10;;;;;;5066848;28;20031;-55
2021/03/21 06:10:03;;;;;;;5.15;3.03;;;3.00;95.30;;;;;;5066055;28;20036;-55
2021/03/21 06:12:47;;;;;;;3.58;2.50;;;2.90;94.90;;;;;;5066459;28;20029;-55
2021/03/21 06:15:39;;;;;;;4.07;3.03;;;2.90;95.10;;;;;;5067011;28;20055;-56
2021/03/21 06:18:23;;;;;;;3.78;2.92;;;3.00;95.20;;;;;;5067233;28;20063;-56
2021/03/21 06:20:52;;;;;;;;;;;3.10;95.00;;;;;;5067586;28;20087;-55
2021/03/21 06:23:45;;;;;;;4.10;2.90;;;3.00;94.80;;;;;;5066471;28;19908;-56
2021/03/21 06:26:37;;;;;;;5.07;2.58;;;3.10;95.00;;;;;;5066620;28;20033;-56
2021/03/21 06:29:54;;;;;;;5.00;3.22;;;3.30;94.90;;;;;;5067023;28;20063;-55
2021/03/21 06:32:26;;;;;;;4.25;3.00;;;3.10;94.90;;;;;;5064955;28;20090;-55
2021/03/21 06:35:30;;;;;;;5.78;2.78;;;2.90;94.90;;;;;;5066657;28;20575;-55
2021/03/21 06:38:01;;;;;;;4.38;2.58;;;2.90;95.10;;;;;;5066517;28;20123;-55
2021/03/21 06:40:44;;;;;;;5.03;2.70;;;3.00;94.90;;;;;;5066014;28;20410;-55
2021/03/21 06:43:39;;;;;;;4.57;2.95;;;2.90;95.10;;;;;;5066175;28;20441;-55
2021/03/21 06:46:38;;;;;;;4.55;2.67;;;3.10;94.70;;;;;;5067174;28;20029;-56
2021/03/21 06:49:28;;;;;;;6.30;3.53;;;3.10;94.80;;;;;;5067011;28;20440;-57
2021/03/21 06:52:18;;;;;;;3.47;2.30;;;3.20;94.60;;;;;;5051527;28;20045;-56
2021/03/21 06:55:19;;;;;;;4.68;2.50;;;3.10;94.80;;;;;;5047915;28;20545;-56
2021/03/21 06:57:57;;;;;;;3.70;2.53;;;3.20;94.60;;;;;;5061345;28;20037;-55
2021/03/21 07:00:35;;;;;;;3.63;2.38;;;3.20;94.60;;;;;;5065037;28;20029;-55
2021/03/21 07:03:35;;;;;;;9.75;4.43;;;3.20;94.80;;;;;;5067011;28;20411;-56
2021/03/21 07:06:15;;;;;;;8.73;4.53;;;3.30;94.70;;;;;;5066622;28;20103;-55
2021/03/21 07:08:58;;;;;;;7.28;3.53;;;3.20;94.70;;;;;;5065331;28;20402;-56
2021/03/21 07:11:49;;;;;;;4.97;3.35;;;3.40;94.90;;;;;;5065696;28;20024;-56
2021/03/21 07:15:03;;;;;;;5.28;3.42;;;3.30;94.50;;;;;;5065900;28;20029;-55
2021/03/21 07:17:47;;;;;;;5.90;3.30;;;3.50;95.00;;;;;;5065680;28;20020;-56
2021/03/21 07:20:33;;;;;;;5.03;2.75;;;3.40;94.50;;;;;;5065553;28;20074;-55
2021/03/21 07:23:22;;;;;;;4.50;2.55;;;3.50;94.70;;;;;;5065589;28;20029;-56
2021/03/21 07:26:07;;;;;;;3.50;2.42;;;3.40;94.70;;;;;;5065485;28;20036;-55
2021/03/21 07:28:44;;;;;;;5.35;2.83;;;3.50;94.40;;;;;;5065870;28;20107;-55
2021/03/21 07:31:19;;;;;;;6.70;4.15;;;3.80;94.60;;;;;;5065426;28;20561;-55
2021/03/21 07:34:03;;;;;;;8.75;4.43;;;4.00;94.30;;;;;;5065415;28;20047;-56
2021/03/21 07:37:03;;;;;;;6.13;3.63;;;4.10;93.80;;;;;;5065189;28;20036;-55
2021/03/21 07:39:39;;;;;;;8.38;4.22;;;4.00;93.80;;;;;;5065006;28;20124;-55
2021/03/21 07:42:27;;;;;;;8.10;4.55;;;3.80;93.90;;;;;;5063991;28;20394;-55
2021/03/21 07:44:55;;;;;;;7.18;3.67;;;3.80;94.00;;;;;;5064526;28;20121;-56
2021/03/21 07:47:49;;;;;;;5.68;3.40;;;3.90;94.00;;;;;;5064120;28;20453;-56
2021/03/21 07:50:23;;;;;;;5.50;3.05;;;3.80;94.10;;;;;;5062171;28;20165;-56
2021/03/21 07:53:02;;;;;;;6.20;3.40;;;3.90;94.00;;;;;;5054796;28;20032;-56
2021/03/21 07:55:57;;;;;;;6.10;3.30;;;3.80;93.60;;;;;;5054645;28;20033;-55
2021/03/21 07:58:26;;;;;;;12.48;5.35;;;4.00;93.40;;;;;;5056192;28;20024;-56
2021/03/21 08:00:53;;;;;;;7.97;3.90;;;3.90;93.60;;;;;;5048153;28;20118;-56
2021/03/21 08:03:25;;;;;;;9.30;4.18;;;4.20;93.60;;;;;;5049854;28;20024;-56
2021/03/21 08:05:56;;;;;;;9.45;4.22;;;4.50;93.10;;;;;;5066317;28;20486;-56
2021/03/21 08:08:25;;;;;;;8.80;4.38;;;4.60;93.20;;;;;;5065315;28;20040;-56
2021/03/21 08:10:56;;;;;;;11.10;6.15;;;4.50;92.60;;;;;;5064917;28;20028;-56
2021/03/21 08:13:44;;;;;;;8.00;4.63;;;4.20;93.40;;;;;;5064874;28;20028;-56
2021/03/21 08:16:17;;;;;;;7.20;3.83;;;4.40;93.40;;;;;;5049000;28;20024;-56
2021/03/21 08:18:47;;;;;;;4.53;2.70;;;4.60;92.90;;;;;;5045461;28;20017;-56
2021/03/21 08:21:24;;;;;;;4.80;2.80;;;4.80;93.10;;;;;;5045816;28;20434;-56
2021/03/21 08:23:52;;;;;;;3.55;2.38;;;4.80;92.60;;;;;;5049649;28;20078;-56
2021/03/21 08:26:32;;;;;;;5.38;2.88;;;4.90;92.00;;;;;;5062887;28;20032;-56
2021/03/21 08:29:10;;;;;;;3.85;2.47;;;5.00;92.00;;;;;;5056761;28;20036;-55
2021/03/21 08:31:41;;;;;;;3.50;2.33;;;5.10;92.40;;;;;;5064727;28;20028;-56
2021/03/21 08:34:34;;;;;;;5.03;2.53;;;5.00;91.80;;;;;;5065528;28;20019;-55
2021/03/21 08:37:30;;;;;;;3.42;2.17;;;5.00;91.20;;;;;;5064385;28;20046;-56
2021/03/21 08:40:02;;;;;;;2.88;1.77;;;5.20;91.70;;;;;;5064436;28;20024;-56
2021/03/21 08:42:32;;;;;;;3.00;1.98;;;5.50;91.50;;;;;;5064443;28;20104;-56
2021/03/21 08:45:12;;;;;;;2.92;1.63;;;5.60;91.10;;;;;;5057940;28;20096;-56
2021/03/21 08:47:39;;;;;;;2.28;1.70;;;5.70;91.40;;;;;;5050387;28;20037;-56
2021/03/21 08:50:10;;;;;;;2.28;1.67;;;5.80;91.30;;;;;;5050720;28;20116;-56
2021/03/21 08:52:43;;;;;;;1.83;1.40;;;5.70;90.70;;;;;;5056284;28;20047;-56
2021/03/21 08:55:31;;;;;;;1.98;1.55;;;5.80;91.00;;;;;;5047342;28;20029;-56
2021/03/21 08:57:57;;;;;;;3.03;2.10;;;5.70;90.50;;;;;;5043678;28;20025;-56
2021/03/21 09:00:34;;;;;;;2.80;1.83;;;5.70;90.70;;;;;;5054439;28;20027;-56
2021/03/21 09:02:59;;;;;;;3.78;2.15;;;5.60;90.50;;;;;;5064564;28;20025;-56
2021/03/21 09:05:26;;;;;;;3.13;1.88;;;5.80;90.90;;;;;;5064418;28;20024;-56
2021/03/21 09:07:52;;;;;;;2.58;1.90;;;5.80;90.60;;;;;;5063864;28;20032;-56
2021/03/21 09:10:33;;;;;;;2.45;1.55;;;5.90;90.10;;;;;;5063962;28;20035;-55
2021/03/21 09:13:02;;;;;;;2.72;1.88;;;6.00;90.30;;;;;;5064503;28;20027;-55
2021/03/21 09:15:31;;;;;;;3.08;2.10;;;5.90;90.00;;;;;;5064843;28;20025;-56
2021/03/21 09:18:19;;;;;;;3.30;1.95;;;6.00;90.60;;;;;;5065185;28;20024;-56
2021/03/21 09:20:52;;;;;;;2.13;1.73;;;6.10;90.30;;;;;;5064321;28;20755;-57
2021/03/21 09:23:40;;;;;;;2.93;2.07;;;6.30;90.20;;;;;;5063857;28;20032;-56
2021/03/21 09:26:23;;;;;;;3.78;1.80;;;6.30;88.80;;;;;;5069025;28;20020;-56
2021/03/21 09:28:54;;;;;;;3.17;2.15;;;6.50;90.00;;;;;;5068447;28;20040;-56
2021/03/21 09:31:19;;;;;;;3.03;2.17;;;6.50;88.60;;;;;;5068120;28;20105;-56
2021/03/21 09:34:01;;;;;;;2.88;2.00;;;6.50;88.20;;;;;;5068568;28;20498;-55
2021/03/21 09:36:42;;;;;;;2.65;1.70;;;6.50;88.50;;;;;;5067993;28;20024;-56
2021/03/21 09:39:08;;;;;;;3.08;1.98;;;6.60;87.00;;;;;;5068778;28;20025;-57
2021/03/21 09:41:33;;;;;;;3.85;2.25;;;6.70;89.00;;;;;;5064930;28;20127;-56
2021/03/21 09:44:14;;;;;;;6.85;2.42;;;6.80;87.40;;;;;;5068114;28;20031;-57
2021/03/21 09:46:47;;;;;;;3.60;2.25;;;6.80;89.10;;;;;;5048056;28;20493;-56
2021/03/21 09:49:35;;;;;;;3.40;2.35;;;6.90;86.50;;;;;;5060855;28;20100;-55
2021/03/21 09:52:23;;;;;;;5.50;2.80;;;6.80;87.90;;;;;;5068263;28;20024;-57
2021/03/21 09:55:10;;;;;;;3.70;2.00;;;6.90;87.20;;;;;;5067884;28;20028;-56
2021/03/21 09:58:09;;;;;;;4.85;2.80;;;7.00;86.80;;;;;;5045562;28;20075;-57
2021/03/21 10:00:38;;;;;;;13.30;6.22;;;7.10;86.60;;;;;;5047186;28;20048;-56
2021/03/21 10:03:23;;;;;;;10.75;5.90;;;6.80;86.50;;;;;;5047587;28;20028;-56
2021/03/21 10:05:58;;;;;;;10.57;5.10;;;6.90;87.20;;;;;;5048106;28;20025;-56
2021/03/21 10:08:45;;;;;;;9.38;4.50;;;6.90;87.40;;;;;;5049144;28;20025;-56
2021/03/21 10:11:21;;;;;;;8.15;4.30;;;7.00;87.00;;;;;;5058883;28;20277;-57
2021/03/21 10:13:47;;;;;;;5.10;3.38;;;7.20;87.80;;;;;;5053846;28;20407;-54
2021/03/21 10:16:16;;;;;;;9.93;4.82;;;7.30;87.80;;;;;;5050971;28;20029;-54
2021/03/21 10:18:47;;;;;;;6.47;3.30;;;7.30;86.00;;;;;;5051805;28;20468;-54
2021/03/21 10:21:24;;;;;;;5.25;3.15;;;7.40;85.70;;;;;;5053530;28;20033;-54
2021/03/21 10:23:57;;;;;;;5.50;3.75;;;7.50;86.70;;;;;;5056967;28;20025;-54
2021/03/21 10:26:25;;;;;;;5.57;3.97;;;7.40;86.00;;;;;;5054093;28;20029;-54
2021/03/21 10:28:53;;;;;;;9.07;5.70;;;7.30;86.70;;;;;;5062513;28;20090;-53
2021/03/21 10:31:22;;;;;;;7.57;4.30;;;7.30;87.30;;;;;;5057034;28;20031;-55
2021/03/21 10:33:49;;;;;;;6.22;3.67;;;7.40;87.80;;;;;;5063227;28;20028;-53
2021/03/21 10:36:43;;;;;;;6.18;3.60;;;7.60;86.40;;;;;;5058654;28;20108;-55
2021/03/21 10:39:13;;;;;;;6.07;3.92;;;7.60;86.70;;;;;;5050891;28;20082;-54
2021/03/21 10:42:03;;;;;;;3.78;2.60;;;7.70;87.20;;;;;;5048015;28;20029;-54
2021/03/21 10:44:32;;;;;;;5.22;2.20;;;8.00;86.10;;;;;;5057580;28;20440;-55
2021/03/21 10:47:09;;;;;;;4.78;3.10;;;8.10;86.70;;;;;;5047596;28;20471;-54
2021/03/21 10:49:49;;;;;;;7.20;4.00;;;8.00;86.50;;;;;;5047652;28;20029;-54
2021/03/21 10:52:39;;;;;;;6.78;4.20;;;8.00;85.80;;;;;;5047875;28;20399;-55
2021/03/21 10:55:30;;;;;;;10.05;4.43;;;8.00;86.10;;;;;;5047597;28;20033;-52
2021/03/21 10:58:17;;;;;;;7.25;4.25;;;7.90;85.70;;;;;;5056302;28;20040;-54
2021/03/21 11:00:43;;;;;;;7.57;3.70;;;7.80;86.50;;;;;;5050157;28;20029;-53
2021/03/21 11:03:16;;;;;;;5.72;3.10;;;7.80;86.20;;;;;;5060104;28;20095;-52
2021/03/21 11:05:45;;;;;;;4.18;2.85;;;8.00;86.20;;;;;;5047673;28;20132;-54
2021/03/21 11:08:13;;;;;;;3.30;2.60;;;8.00;87.60;;;;;;5046446;28;20033;-53
2021/03/21 11:10:41;;;;;;;4.18;2.55;;;8.30;87.60;;;;;;5046576;28;20033;-53
2021/03/21 11:13:10;;;;;;;5.22;3.42;;;8.50;85.60;;;;;;5054514;28;20025;-54
2021/03/21 11:15:44;;;;;;;3.22;2.80;;;8.20;86.50;;;;;;5047368;28;20100;-54
2021/03/21 11:18:18;;;;;;;3.25;2.15;;;8.60;85.10;;;;;;5060166;28;20055;-53
2021/03/21 11:20:45;;;;;;;3.70;2.00;;;8.70;85.70;;;;;;5056865;28;20051;-54
2021/03/21 11:23:22;;;;;;;3.60;1.67;;;8.80;84.90;;;;;;5052859;28;20020;-52
2021/03/21 11:25:49;;;;;;;1.42;1.23;;;8.90;84.00;;;;;;5053352;28;20029;-53
2021/03/21 11:28:23;;;;;;;2.72;2.10;;;9.10;85.10;;;;;;5053964;28;20040;-54
2021/03/21 11:30:53;;;;;;;;;;;9.00;85.20;;;;;;5053477;28;20086;-54
2021/03/21 11:33:29;;;;;;;6.07;2.20;;;9.30;85.10;;;;;;5062860;28;19908;-53
2021/03/21 11:36:13;;;;;;;4.32;2.40;;;9.20;84.20;;;;;;5062033;28;20044;-53
2021/03/21 11:38:40;;;;;;;5.28;2.50;;;9.10;84.50;;;;;;5051564;28;20107;-55
2021/03/21 11:41:37;;;;;;;3.20;2.20;;;9.30;85.70;;;;;;5053179;28;20441;-53
2021/03/21 11:44:25;;;;;;;3.30;2.08;;;9.70;83.90;;;;;;5047752;28;20406;-54
2021/03/21 11:46:54;;;;;;;3.38;2.45;;;9.60;83.50;;;;;;5046597;28;20453;-54
2021/03/21 11:49:22;;;;;;;3.50;2.47;;;9.50;85.30;;;;;;5048467;28;20025;-54
2021/03/21 11:52:02;;;;;;;3.00;2.10;;;9.60;83.90;;;;;;5050093;28;20107;-55
2021/03/21 11:54:30;;;;;;;6.00;3.13;;;9.80;83.90;;;;;;5048952;28;20017;-55
2021/03/21 11:57:22;;;;;;;7.15;4.07;;;10.20;83.80;;;;;;5046233;28;20491;-54
2021/03/21 11:59:55;;;;;;;6.85;3.35;;;10.40;80.70;;;;;;5059061;28;20517;-54
2021/03/21 12:02:29;;;;;;;3.40;2.53;;;10.00;80.60;;;;;;5046054;28;20120;-53
2021/03/21 12:04:55;;;;;;;;;;;10.00;80.90;;;;;;5061653;28;20099;-53
2021/03/21 12:07:27;;;;;;;4.05;2.58;;;10.30;81.60;;;;;;5046931;28;20297;-52
2021/03/21 12:09:53;;;;;;;2.53;1.80;;;10.50;81.80;;;;;;5046737;28;20033;-53
2021/03/21 12:12:39;;;;;;;2.35;1.60;;;10.80;80.30;;;;;;5055815;28;20025;-54
2021/03/21 12:15:34;;;;;;;2.17;1.58;;;10.80;79.50;;;;;;5055604;28;20044;-53
2021/03/21 12:18:03;;;;;;;1.88;1.40;;;11.00;79.00;;;;;;5045042;28;20108;-53
2021/03/21 12:20:31;;;;;;;1.98;1.30;;;11.00;78.70;;;;;;5044763;28;20051;-52
2021/03/21 12:22:58;;;;;;;2.03;1.55;;;11.40;78.00;;;;;;5044688;28;20300;-52
2021/03/21 12:25:29;;;;;;;1.83;1.30;;;10.90;79.60;;;;;;5043673;28;20029;-52
2021/03/21 12:28:13;;;;;;;1.70;1.33;;;11.30;80.70;;;;;;5056873;28;20614;-52
2021/03/21 12:30:48;;;;;;;1.55;1.30;;;11.50;79.80;;;;;;5052264;28;20119;-52
2021/03/21 12:33:29;;;;;;;1.13;0.93;;;11.60;80.60;;;;;;5053439;28;20022;-51
2021/03/21 12:36:07;;;;;;;1.15;1.05;;;11.60;81.60;;;;;;5051347;28;20090;-52
2021/03/21 12:38:58;;;;;;;1.50;1.00;;;11.90;82.50;;;;;;5047116;28;20031;-54
2021/03/21 12:41:38;;;;;;;0.85;0.80;;;12.20;82.30;;;;;;5050532;28;20036;-53
2021/03/21 12:44:21;;;;;;;1.23;0.90;;;12.10;81.60;;;;;;5046538;28;20032;-53
2021/03/21 12:46:50;;;;;;;1.48;1.10;;;12.00;82.90;;;;;;5045565;28;20430;-53
2021/03/21 12:49:35;;;;;;;1.67;0.93;;;11.90;81.00;;;;;;5050525;28;20052;-53
2021/03/21 12:52:11;;;;;;;1.88;1.00;;;11.80;81.40;;;;;;5059611;28;20064;-52
2021/03/21 12:54:39;;;;;;;0.90;0.80;;;11.50;80.90;;;;;;5045610;28;20163;-54
2021/03/21 12:57:10;;;;;;;0.80;0.80;;;12.00;82.60;;;;;;5049110;28;20028;-53
2021/03/21 12:59:37;;;;;;;1.27;1.00;;;12.20;81.40;;;;;;5055865;28;20082;-53
2021/03/21 13:02:03;;;;;;;3.20;1.75;;;12.10;81.20;;;;;;5055694;28;20055;-51
2021/03/21 13:04:28;;;;;;;3.67;1.90;;;11.80;82.50;;;;;;5053127;28;20025;-53
2021/03/21 13:06:54;;;;;;;2.85;1.52;;;12.00;83.60;;;;;;5049622;28;20520;-52
2021/03/21 13:09:20;;;;;;;3.33;1.83;;;12.10;81.50;;;;;;5064286;28;20036;-51
2021/03/21 13:11:46;;;;;;;7.97;3.60;;;12.20;81.70;;;;;;5049538;28;20028;-54
2021/03/21 13:14:11;;;;;;;4.72;2.70;;;11.90;82.30;;;;;;5055030;28;20037;-53
2021/03/21 13:16:37;;;;;;;4.78;2.75;;;12.10;81.90;;;;;;5049674;28;20029;-51
2021/03/21 13:19:02;;;;;;;5.55;2.65;;;12.00;81.90;;;;;;5068091;28;20025;-48
2021/03/21 13:21:28;;;;;;;4.15;2.40;;;12.30;81.00;;;;;;5066815;28;20115;-50
2021/03/21 13:23:54;;;;;;;7.00;3.50;;;12.00;80.60;;;;;;5057719;28;20485;-51
2021/03/21 13:26:19;;;;;;;6.50;3.15;;;11.70;81.60;;;;;;5060805;28;20033;-50
2021/03/21 13:28:45;;;;;;;5.18;2.30;;;12.10;81.70;;;;;;5057344;28;20540;-48
2021/03/21 13:31:11;;;;;;;2.83;1.70;;;12.30;79.80;;;;;;5053300;28;20040;-50
2021/03/21 13:33:38;;;;;;;3.83;2.13;;;12.20;80.70;;;;;;5057917;28;20029;-48
2021/03/21 13:36:09;;;;;;;3.65;2.30;;;12.00;80.80;;;;;;5056783;28;20035;-49
2021/03/21 13:38:36;;;;;;;3.30;2.10;;;12.00;81.40;;;;;;5052821;28;21046;-49
2021/03/21 13:41:02;;;;;;;2.10;1.48;;;12.20;80.60;;;;;;5062207;28;20029;-49
2021/03/21 13:43:30;;;;;;;6.68;3.53;;;12.80;81.50;;;;;;5064185;28;20523;-50